sensor_id;sensor_type;location;lat;lon;timestamp;P1;durP1;ratioP1;P2;durP2;ratioP2
9844;SDS011;4961;50.782;6.080;2022-07-29T00:01:40;3.90;;;0.70;;
9844;SDS011;4961;50.782;6.080;2022-07-29T00:04:09;2.30;;;0.53;;
9844;SDS011;4961;50.782;6.080;2022-07-29T00:06:39;3.80;;;0.60;;
9844;SDS011;4961;50.782;6.080;2022-07-29T00:09:09;5.07;;;0.53;;
9844;SDS011;4961;50.782;6.080;2022-07-29T00:11:37;1.47;;;0.50;;
9844;SDS011;4961;50.782;6.080;2022-07-29T00:14:07;1.53;;;0.50;;
9844;SDS011;4961;50.782;6.080;2022-07-29T00:16:37;2.07;;;0.50;;
9844;SDS011;4961;50.782;6.080;2022-07-29T00:19:05;1.80;;;0.50;;
9844;SDS011;4961;50.782;6.080;2022-07-29T00:21:34;1.70;;;0.60;;
9844;SDS011;4961;50.782;6.080;2022-07-29T00:24:02;2.77;;;0.70;;
9844;SDS011;4961;50.782;6.080;2022-07-29T00:26:31;1.47;;;0.60;;
9844;SDS011;4961;50.782;6.080;2022-07-29T00:29:00;2.33;;;0.60;;
9844;SDS011;4961;50.782;6.080;2022-07-29T00:31:51;2.50;;;0.77;;
9844;SDS011;4961;50.782;6.080;2022-07-29T00:34:19;2.40;;;0.70;;
9844;SDS011;4961;50.782;6.080;2022-07-29T00:37:05;2.73;;;0.50;;
9844;SDS011;4961;50.782;6.080;2022-07-29T00:39:33;4.30;;;0.63;;
9844;SDS011;4961;50.782;6.080;2022-07-29T00:42:02;1.90;;;0.60;;
9844;SDS011;4961;50.782;6.080;2022-07-29T00:44:32;3.20;;;0.60;;
9844;SDS011;4961;50.782;6.080;2022-07-29T00:47:05;3.80;;;0.63;;
9844;SDS011;4961;50.782;6.080;2022-07-29T00:49:34;2.43;;;0.40;;
9844;SDS011;4961;50.782;6.080;2022-07-29T00:52:05;2.57;;;0.60;;
9844;SDS011;4961;50.782;6.080;2022-07-29T00:54:34;2.83;;;0.60;;
9844;SDS011;4961;50.782;6.080;2022-07-29T00:57:09;2.67;;;0.70;;
9844;SDS011;4961;50.782;6.080;2022-07-29T00:59:39;3.53;;;0.70;;
9844;SDS011;4961;50.782;6.080;2022-07-29T01:02:08;2.20;;;0.67;;
9844;SDS011;4961;50.782;6.080;2022-07-29T01:04:37;3.07;;;0.50;;
9844;SDS011;4961;50.782;6.080;2022-07-29T01:07:06;4.00;;;0.80;;
9844;SDS011;4961;50.782;6.080;2022-07-29T01:09:35;1.37;;;0.50;;
9844;SDS011;4961;50.782;6.080;2022-07-29T01:12:12;1.77;;;0.70;;
9844;SDS011;4961;50.782;6.080;2022-07-29T01:14:42;3.07;;;0.60;;
9844;SDS011;4961;50.782;6.080;2022-07-29T01:17:14;3.70;;;0.50;;
9844;SDS011;4961;50.782;6.080;2022-07-29T01:19:48;3.40;;;0.60;;
9844;SDS011;4961;50.782;6.080;2022-07-29T01:22:28;6.17;;;0.70;;
9844;SDS011;4961;50.782;6.080;2022-07-29T01:25:08;2.30;;;0.80;;
9844;SDS011;4961;50.782;6.080;2022-07-29T01:27:48;1.67;;;0.60;;
9844;SDS011;4961;50.782;6.080;2022-07-29T01:30:28;2.67;;;0.60;;
9844;SDS011;4961;50.782;6.080;2022-07-29T01:33:01;3.03;;;0.60;;
9844;SDS011;4961;50.782;6.080;2022-07-29T01:35:35;1.93;;;0.60;;
9844;SDS011;4961;50.782;6.080;2022-07-29T01:38:08;3.00;;;0.60;;
9844;SDS011;4961;50.782;6.080;2022-07-29T01:40:43;3.13;;;0.60;;
9844;SDS011;4961;50.782;6.080;2022-07-29T01:43:16;6.33;;;0.70;;
9844;SDS011;4961;50.782;6.080;2022-07-29T01:45:50;2.23;;;0.50;;
9844;SDS011;4961;50.782;6.080;2022-07-29T01:51:11;3.00;;;0.70;;
9844;SDS011;4961;50.782;6.080;2022-07-29T01:53:44;0.63;;;0.50;;
9844;SDS011;4961;50.782;6.080;2022-07-29T01:56:18;2.10;;;0.70;;
9844;SDS011;4961;50.782;6.080;2022-07-29T01:58:49;2.27;;;0.57;;
9844;SDS011;4961;50.782;6.080;2022-07-29T02:01:22;2.47;;;0.80;;
9844;SDS011;4961;50.782;6.080;2022-07-29T02:03:52;2.27;;;0.50;;
9844;SDS011;4961;50.782;6.080;2022-07-29T02:06:22;1.87;;;0.60;;
9844;SDS011;4961;50.782;6.080;2022-07-29T02:08:51;1.00;;;0.60;;
9844;SDS011;4961;50.782;6.080;2022-07-29T02:11:22;2.63;;;0.60;;
9844;SDS011;4961;50.782;6.080;2022-07-29T02:13:51;4.20;;;0.83;;
9844;SDS011;4961;50.782;6.080;2022-07-29T02:16:23;3.83;;;0.90;;
9844;SDS011;4961;50.782;6.080;2022-07-29T02:18:54;1.50;;;0.70;;
9844;SDS011;4961;50.782;6.080;2022-07-29T02:21:25;3.20;;;0.70;;
9844;SDS011;4961;50.782;6.080;2022-07-29T02:23:55;1.73;;;0.80;;
9844;SDS011;4961;50.782;6.080;2022-07-29T02:26:26;3.23;;;0.77;;
9844;SDS011;4961;50.782;6.080;2022-07-29T02:28:56;2.10;;;0.70;;
9844;SDS011;4961;50.782;6.080;2022-07-29T02:31:28;2.00;;;0.90;;
9844;SDS011;4961;50.782;6.080;2022-07-29T02:34:00;1.30;;;0.70;;
9844;SDS011;4961;50.782;6.080;2022-07-29T02:36:30;2.17;;;0.60;;
9844;SDS011;4961;50.782;6.080;2022-07-29T02:39:01;3.00;;;0.70;;
9844;SDS011;4961;50.782;6.080;2022-07-29T02:41:33;2.30;;;0.60;;
9844;SDS011;4961;50.782;6.080;2022-07-29T02:44:08;5.80;;;0.70;;
9844;SDS011;4961;50.782;6.080;2022-07-29T02:46:41;2.20;;;0.70;;
9844;SDS011;4961;50.782;6.080;2022-07-29T02:49:15;2.30;;;0.70;;
9844;SDS011;4961;50.782;6.080;2022-07-29T02:51:51;3.40;;;0.70;;
9844;SDS011;4961;50.782;6.080;2022-07-29T02:54:23;1.97;;;0.83;;
9844;SDS011;4961;50.782;6.080;2022-07-29T02:56:58;2.40;;;0.80;;
9844;SDS011;4961;50.782;6.080;2022-07-29T02:59:32;2.83;;;0.70;;
9844;SDS011;4961;50.782;6.080;2022-07-29T03:02:05;1.93;;;0.80;;
9844;SDS011;4961;50.782;6.080;2022-07-29T03:04:36;1.63;;;0.60;;
9844;SDS011;4961;50.782;6.080;2022-07-29T03:07:07;2.13;;;0.80;;
9844;SDS011;4961;50.782;6.080;2022-07-29T03:09:38;1.83;;;0.80;;
9844;SDS011;4961;50.782;6.080;2022-07-29T03:12:09;2.03;;;0.70;;
9844;SDS011;4961;50.782;6.080;2022-07-29T03:14:38;6.73;;;1.10;;
9844;SDS011;4961;50.782;6.080;2022-07-29T03:17:08;3.57;;;0.77;;
9844;SDS011;4961;50.782;6.080;2022-07-29T03:19:37;3.90;;;0.70;;
9844;SDS011;4961;50.782;6.080;2022-07-29T03:22:06;1.77;;;0.80;;
9844;SDS011;4961;50.782;6.080;2022-07-29T03:24:36;1.70;;;0.90;;
9844;SDS011;4961;50.782;6.080;2022-07-29T03:27:04;5.00;;;1.00;;
9844;SDS011;4961;50.782;6.080;2022-07-29T03:29:33;2.13;;;0.90;;
9844;SDS011;4961;50.782;6.080;2022-07-29T03:32:02;4.00;;;0.77;;
9844;SDS011;4961;50.782;6.080;2022-07-29T03:34:36;2.97;;;1.00;;
9844;SDS011;4961;50.782;6.080;2022-07-29T03:37:05;2.23;;;0.70;;
9844;SDS011;4961;50.782;6.080;2022-07-29T03:39:35;2.70;;;0.80;;
9844;SDS011;4961;50.782;6.080;2022-07-29T03:42:08;2.07;;;0.83;;
9844;SDS011;4961;50.782;6.080;2022-07-29T03:44:40;2.63;;;0.97;;
9844;SDS011;4961;50.782;6.080;2022-07-29T03:47:11;4.67;;;0.73;;
9844;SDS011;4961;50.782;6.080;2022-07-29T03:49:44;2.40;;;0.90;;
9844;SDS011;4961;50.782;6.080;2022-07-29T03:52:15;1.50;;;0.73;;
9844;SDS011;4961;50.782;6.080;2022-07-29T03:54:44;5.37;;;1.10;;
9844;SDS011;4961;50.782;6.080;2022-07-29T03:57:13;1.80;;;0.80;;
9844;SDS011;4961;50.782;6.080;2022-07-29T03:59:43;2.67;;;1.00;;
9844;SDS011;4961;50.782;6.080;2022-07-29T04:02:12;4.90;;;1.13;;
9844;SDS011;4961;50.782;6.080;2022-07-29T04:04:49;1.23;;;0.93;;
9844;SDS011;4961;50.782;6.080;2022-07-29T04:07:17;4.10;;;0.80;;
9844;SDS011;4961;50.782;6.080;2022-07-29T04:09:46;4.87;;;1.13;;
9844;SDS011;4961;50.782;6.080;2022-07-29T04:12:14;2.70;;;0.70;;
9844;SDS011;4961;50.782;6.080;2022-07-29T04:14:42;3.43;;;0.80;;
9844;SDS011;4961;50.782;6.080;2022-07-29T04:17:11;3.03;;;0.90;;
9844;SDS011;4961;50.782;6.080;2022-07-29T04:19:39;4.93;;;0.90;;
9844;SDS011;4961;50.782;6.080;2022-07-29T04:22:09;1.17;;;0.80;;
9844;SDS011;4961;50.782;6.080;2022-07-29T04:24:37;2.30;;;0.90;;
9844;SDS011;4961;50.782;6.080;2022-07-29T04:27:11;2.37;;;1.00;;
9844;SDS011;4961;50.782;6.080;2022-07-29T04:29:39;4.63;;;1.00;;
9844;SDS011;4961;50.782;6.080;2022-07-29T04:32:22;5.13;;;1.03;;
9844;SDS011;4961;50.782;6.080;2022-07-29T04:34:51;2.63;;;0.90;;
9844;SDS011;4961;50.782;6.080;2022-07-29T04:37:21;1.27;;;0.80;;
9844;SDS011;4961;50.782;6.080;2022-07-29T04:39:49;2.60;;;0.90;;
9844;SDS011;4961;50.782;6.080;2022-07-29T04:42:18;4.73;;;0.70;;
9844;SDS011;4961;50.782;6.080;2022-07-29T04:44:53;2.77;;;1.00;;
9844;SDS011;4961;50.782;6.080;2022-07-29T04:47:21;1.70;;;0.70;;
9844;SDS011;4961;50.782;6.080;2022-07-29T04:49:50;2.60;;;0.80;;
9844;SDS011;4961;50.782;6.080;2022-07-29T04:52:18;2.20;;;0.80;;
9844;SDS011;4961;50.782;6.080;2022-07-29T04:54:48;1.77;;;0.67;;
9844;SDS011;4961;50.782;6.080;2022-07-29T04:57:16;3.30;;;0.87;;
9844;SDS011;4961;50.782;6.080;2022-07-29T04:59:45;6.10;;;1.03;;
9844;SDS011;4961;50.782;6.080;2022-07-29T05:02:13;2.50;;;1.00;;
9844;SDS011;4961;50.782;6.080;2022-07-29T05:04:41;2.80;;;0.80;;
9844;SDS011;4961;50.782;6.080;2022-07-29T05:07:10;4.33;;;0.80;;
9844;SDS011;4961;50.782;6.080;2022-07-29T05:09:40;3.27;;;0.80;;
9844;SDS011;4961;50.782;6.080;2022-07-29T05:12:08;3.30;;;0.80;;
9844;SDS011;4961;50.782;6.080;2022-07-29T05:14:37;2.77;;;0.97;;
9844;SDS011;4961;50.782;6.080;2022-07-29T05:17:05;1.67;;;0.70;;
9844;SDS011;4961;50.782;6.080;2022-07-29T05:19:34;1.53;;;0.80;;
9844;SDS011;4961;50.782;6.080;2022-07-29T05:22:05;2.80;;;0.90;;
9844;SDS011;4961;50.782;6.080;2022-07-29T05:24:33;2.13;;;0.80;;
9844;SDS011;4961;50.782;6.080;2022-07-29T05:27:03;2.73;;;1.10;;
9844;SDS011;4961;50.782;6.080;2022-07-29T05:29:33;1.93;;;1.00;;
9844;SDS011;4961;50.782;6.080;2022-07-29T05:32:10;3.03;;;1.13;;
9844;SDS011;4961;50.782;6.080;2022-07-29T05:34:39;3.57;;;1.10;;
9844;SDS011;4961;50.782;6.080;2022-07-29T05:37:17;1.17;;;0.80;;
9844;SDS011;4961;50.782;6.080;2022-07-29T05:39:46;2.20;;;1.00;;
9844;SDS011;4961;50.782;6.080;2022-07-29T05:42:23;4.03;;;0.90;;
9844;SDS011;4961;50.782;6.080;2022-07-29T05:44:53;1.60;;;0.90;;
9844;SDS011;4961;50.782;6.080;2022-07-29T05:47:22;6.30;;;0.90;;
9844;SDS011;4961;50.782;6.080;2022-07-29T05:49:50;2.83;;;1.00;;
9844;SDS011;4961;50.782;6.080;2022-07-29T05:52:20;2.43;;;1.03;;
9844;SDS011;4961;50.782;6.080;2022-07-29T05:54:48;3.43;;;0.90;;
9844;SDS011;4961;50.782;6.080;2022-07-29T05:57:17;4.73;;;1.10;;
9844;SDS011;4961;50.782;6.080;2022-07-29T05:59:48;3.23;;;1.20;;
9844;SDS011;4961;50.782;6.080;2022-07-29T06:02:17;2.63;;;0.90;;
9844;SDS011;4961;50.782;6.080;2022-07-29T06:04:46;1.87;;;0.97;;
9844;SDS011;4961;50.782;6.080;2022-07-29T06:07:15;2.80;;;0.80;;
9844;SDS011;4961;50.782;6.080;2022-07-29T06:09:52;3.93;;;1.00;;
9844;SDS011;4961;50.782;6.080;2022-07-29T06:12:26;4.10;;;1.10;;
9844;SDS011;4961;50.782;6.080;2022-07-29T06:14:56;5.53;;;1.50;;
9844;SDS011;4961;50.782;6.080;2022-07-29T06:17:26;5.70;;;1.10;;
9844;SDS011;4961;50.782;6.080;2022-07-29T06:19:55;4.80;;;1.60;;
9844;SDS011;4961;50.782;6.080;2022-07-29T06:22:23;4.30;;;1.17;;
9844;SDS011;4961;50.782;6.080;2022-07-29T06:24:51;5.57;;;1.20;;
9844;SDS011;4961;50.782;6.080;2022-07-29T06:27:20;2.70;;;1.27;;
9844;SDS011;4961;50.782;6.080;2022-07-29T06:29:48;3.43;;;0.87;;
9844;SDS011;4961;50.782;6.080;2022-07-29T06:32:18;9.90;;;1.73;;
9844;SDS011;4961;50.782;6.080;2022-07-29T06:34:52;2.23;;;1.10;;
9844;SDS011;4961;50.782;6.080;2022-07-29T06:37:40;3.93;;;1.17;;
9844;SDS011;4961;50.782;6.080;2022-07-29T06:40:51;6.33;;;1.10;;
9844;SDS011;4961;50.782;6.080;2022-07-29T06:43:34;1.97;;;1.20;;
9844;SDS011;4961;50.782;6.080;2022-07-29T06:46:18;4.83;;;1.30;;
9844;SDS011;4961;50.782;6.080;2022-07-29T06:48:49;3.73;;;2.07;;
9844;SDS011;4961;50.782;6.080;2022-07-29T06:51:19;3.33;;;1.33;;
9844;SDS011;4961;50.782;6.080;2022-07-29T06:53:50;4.53;;;1.40;;
9844;SDS011;4961;50.782;6.080;2022-07-29T06:56:28;9.03;;;1.30;;
9844;SDS011;4961;50.782;6.080;2022-07-29T06:58:57;3.53;;;1.50;;
9844;SDS011;4961;50.782;6.080;2022-07-29T07:01:27;4.17;;;1.77;;
9844;SDS011;4961;50.782;6.080;2022-07-29T07:03:57;2.50;;;1.10;;
9844;SDS011;4961;50.782;6.080;2022-07-29T07:06:25;4.67;;;1.17;;
9844;SDS011;4961;50.782;6.080;2022-07-29T07:08:54;3.03;;;1.10;;
9844;SDS011;4961;50.782;6.080;2022-07-29T07:11:22;2.30;;;1.13;;
9844;SDS011;4961;50.782;6.080;2022-07-29T07:13:50;11.97;;;2.00;;
9844;SDS011;4961;50.782;6.080;2022-07-29T07:16:19;6.70;;;1.50;;
9844;SDS011;4961;50.782;6.080;2022-07-29T07:18:47;8.93;;;1.50;;
9844;SDS011;4961;50.782;6.080;2022-07-29T07:21:17;6.53;;;1.20;;
9844;SDS011;4961;50.782;6.080;2022-07-29T07:23:45;2.03;;;1.07;;
9844;SDS011;4961;50.782;6.080;2022-07-29T07:26:14;4.83;;;1.73;;
9844;SDS011;4961;50.782;6.080;2022-07-29T07:28:43;3.93;;;1.07;;
9844;SDS011;4961;50.782;6.080;2022-07-29T07:31:11;2.73;;;1.97;;
9844;SDS011;4961;50.782;6.080;2022-07-29T07:33:40;2.87;;;1.40;;
9844;SDS011;4961;50.782;6.080;2022-07-29T07:36:09;4.43;;;1.57;;
9844;SDS011;4961;50.782;6.080;2022-07-29T07:38:39;5.90;;;1.73;;
9844;SDS011;4961;50.782;6.080;2022-07-29T07:41:07;3.27;;;1.40;;
9844;SDS011;4961;50.782;6.080;2022-07-29T07:43:37;3.10;;;1.60;;
9844;SDS011;4961;50.782;6.080;2022-07-29T07:46:05;2.73;;;1.37;;
9844;SDS011;4961;50.782;6.080;2022-07-29T07:48:34;1.73;;;1.50;;
9844;SDS011;4961;50.782;6.080;2022-07-29T07:51:03;5.23;;;3.03;;
9844;SDS011;4961;50.782;6.080;2022-07-29T07:53:31;2.97;;;1.57;;
9844;SDS011;4961;50.782;6.080;2022-07-29T07:56:02;1.30;;;1.20;;
9844;SDS011;4961;50.782;6.080;2022-07-29T07:58:36;3.43;;;1.93;;
9844;SDS011;4961;50.782;6.080;2022-07-29T08:01:05;2.87;;;1.27;;
9844;SDS011;4961;50.782;6.080;2022-07-29T08:03:33;2.77;;;1.53;;
9844;SDS011;4961;50.782;6.080;2022-07-29T08:06:02;5.07;;;1.30;;
9844;SDS011;4961;50.782;6.080;2022-07-29T08:08:32;2.37;;;1.40;;
9844;SDS011;4961;50.782;6.080;2022-07-29T08:11:02;4.13;;;1.30;;
9844;SDS011;4961;50.782;6.080;2022-07-29T08:13:35;1.40;;;1.20;;
9844;SDS011;4961;50.782;6.080;2022-07-29T08:16:05;5.37;;;1.17;;
9844;SDS011;4961;50.782;6.080;2022-07-29T08:18:42;4.17;;;1.17;;
9844;SDS011;4961;50.782;6.080;2022-07-29T08:21:11;2.40;;;1.13;;
9844;SDS011;4961;50.782;6.080;2022-07-29T08:23:41;1.87;;;1.40;;
9844;SDS011;4961;50.782;6.080;2022-07-29T08:26:28;2.50;;;1.10;;
9844;SDS011;4961;50.782;6.080;2022-07-29T08:28:57;3.77;;;1.20;;
9844;SDS011;4961;50.782;6.080;2022-07-29T08:31:25;2.63;;;1.00;;
9844;SDS011;4961;50.782;6.080;2022-07-29T08:33:53;4.27;;;1.00;;
9844;SDS011;4961;50.782;6.080;2022-07-29T08:36:24;3.43;;;1.30;;
9844;SDS011;4961;50.782;6.080;2022-07-29T08:38:53;4.37;;;1.50;;
9844;SDS011;4961;50.782;6.080;2022-07-29T08:41:21;3.27;;;1.10;;
9844;SDS011;4961;50.782;6.080;2022-07-29T08:43:52;3.83;;;1.20;;
9844;SDS011;4961;50.782;6.080;2022-07-29T08:46:22;6.73;;;1.30;;
9844;SDS011;4961;50.782;6.080;2022-07-29T08:48:50;3.07;;;1.30;;
9844;SDS011;4961;50.782;6.080;2022-07-29T08:51:19;3.27;;;1.80;;
9844;SDS011;4961;50.782;6.080;2022-07-29T08:53:49;2.93;;;1.43;;
9844;SDS011;4961;50.782;6.080;2022-07-29T08:56:19;6.27;;;2.10;;
9844;SDS011;4961;50.782;6.080;2022-07-29T08:58:48;2.20;;;1.47;;
9844;SDS011;4961;50.782;6.080;2022-07-29T09:01:22;4.67;;;1.70;;
9844;SDS011;4961;50.782;6.080;2022-07-29T09:04:03;4.47;;;1.73;;
9844;SDS011;4961;50.782;6.080;2022-07-29T09:06:37;3.83;;;1.57;;
9844;SDS011;4961;50.782;6.080;2022-07-29T09:09:10;2.57;;;1.37;;
9844;SDS011;4961;50.782;6.080;2022-07-29T09:11:40;2.30;;;1.20;;
9844;SDS011;4961;50.782;6.080;2022-07-29T09:14:10;5.53;;;1.47;;
9844;SDS011;4961;50.782;6.080;2022-07-29T09:16:45;4.70;;;1.17;;
9844;SDS011;4961;50.782;6.080;2022-07-29T09:19:23;2.50;;;1.10;;
9844;SDS011;4961;50.782;6.080;2022-07-29T09:21:55;5.07;;;2.00;;
9844;SDS011;4961;50.782;6.080;2022-07-29T09:24:39;2.70;;;1.07;;
9844;SDS011;4961;50.782;6.080;2022-07-29T09:27:10;2.30;;;1.20;;
9844;SDS011;4961;50.782;6.080;2022-07-29T09:29:46;6.50;;;1.37;;
9844;SDS011;4961;50.782;6.080;2022-07-29T09:32:16;3.47;;;1.33;;
9844;SDS011;4961;50.782;6.080;2022-07-29T09:34:46;1.13;;;0.93;;
9844;SDS011;4961;50.782;6.080;2022-07-29T09:37:25;4.43;;;1.00;;
9844;SDS011;4961;50.782;6.080;2022-07-29T09:39:54;11.53;;;1.63;;
9844;SDS011;4961;50.782;6.080;2022-07-29T09:42:31;3.67;;;1.00;;
9844;SDS011;4961;50.782;6.080;2022-07-29T09:45:00;2.57;;;0.90;;
9844;SDS011;4961;50.782;6.080;2022-07-29T09:47:41;1.73;;;1.10;;
9844;SDS011;4961;50.782;6.080;2022-07-29T09:50:13;1.97;;;1.40;;
9844;SDS011;4961;50.782;6.080;2022-07-29T09:52:46;2.50;;;1.37;;
9844;SDS011;4961;50.782;6.080;2022-07-29T09:55:25;5.43;;;1.93;;
9844;SDS011;4961;50.782;6.080;2022-07-29T10:00:45;2.83;;;1.80;;
9844;SDS011;4961;50.782;6.080;2022-07-29T10:03:15;3.83;;;2.20;;
9844;SDS011;4961;50.782;6.080;2022-07-29T10:05:45;3.53;;;1.80;;
9844;SDS011;4961;50.782;6.080;2022-07-29T10:08:24;7.23;;;2.80;;
9844;SDS011;4961;50.782;6.080;2022-07-29T10:11:02;5.57;;;2.00;;
9844;SDS011;4961;50.782;6.080;2022-07-29T10:13:37;4.27;;;2.07;;
9844;SDS011;4961;50.782;6.080;2022-07-29T10:16:06;3.10;;;1.90;;
9844;SDS011;4961;50.782;6.080;2022-07-29T10:18:38;2.57;;;1.40;;
9844;SDS011;4961;50.782;6.080;2022-07-29T10:21:07;2.97;;;1.53;;
9844;SDS011;4961;50.782;6.080;2022-07-29T10:23:47;2.03;;;1.10;;
9844;SDS011;4961;50.782;6.080;2022-07-29T10:26:16;3.07;;;1.50;;
9844;SDS011;4961;50.782;6.080;2022-07-29T10:28:46;1.83;;;0.80;;
9844;SDS011;4961;50.782;6.080;2022-07-29T10:31:19;2.70;;;1.23;;
9844;SDS011;4961;50.782;6.080;2022-07-29T10:34:04;3.83;;;1.30;;
9844;SDS011;4961;50.782;6.080;2022-07-29T10:36:47;4.50;;;1.40;;
9844;SDS011;4961;50.782;6.080;2022-07-29T10:39:27;2.37;;;1.20;;
9844;SDS011;4961;50.782;6.080;2022-07-29T10:42:16;3.17;;;1.20;;
9844;SDS011;4961;50.782;6.080;2022-07-29T10:45:00;2.37;;;1.13;;
9844;SDS011;4961;50.782;6.080;2022-07-29T10:47:31;2.97;;;1.20;;
9844;SDS011;4961;50.782;6.080;2022-07-29T10:50:08;4.27;;;1.20;;
9844;SDS011;4961;50.782;6.080;2022-07-29T10:52:52;3.47;;;1.10;;
9844;SDS011;4961;50.782;6.080;2022-07-29T10:55:31;6.57;;;1.30;;
9844;SDS011;4961;50.782;6.080;2022-07-29T10:58:15;4.53;;;1.23;;
9844;SDS011;4961;50.782;6.080;2022-07-29T11:00:45;1.90;;;1.03;;
9844;SDS011;4961;50.782;6.080;2022-07-29T11:06:17;1.93;;;1.07;;
9844;SDS011;4961;50.782;6.080;2022-07-29T11:11:46;4.30;;;1.13;;
9844;SDS011;4961;50.782;6.080;2022-07-29T11:14:17;4.97;;;1.30;;
9844;SDS011;4961;50.782;6.080;2022-07-29T11:16:58;4.77;;;1.13;;
9844;SDS011;4961;50.782;6.080;2022-07-29T11:19:34;5.27;;;1.30;;
9844;SDS011;4961;50.782;6.080;2022-07-29T11:22:09;3.23;;;1.10;;
9844;SDS011;4961;50.782;6.080;2022-07-29T11:24:41;2.47;;;1.50;;
9844;SDS011;4961;50.782;6.080;2022-07-29T11:27:30;4.77;;;1.80;;
9844;SDS011;4961;50.782;6.080;2022-07-29T11:30:06;3.10;;;1.40;;
9844;SDS011;4961;50.782;6.080;2022-07-29T11:32:36;2.63;;;1.33;;
9844;SDS011;4961;50.782;6.080;2022-07-29T11:35:11;5.87;;;1.40;;
9844;SDS011;4961;50.782;6.080;2022-07-29T11:37:45;1.50;;;1.40;;
9844;SDS011;4961;50.782;6.080;2022-07-29T11:40:20;2.90;;;1.50;;
9844;SDS011;4961;50.782;6.080;2022-07-29T11:42:49;4.50;;;1.20;;
9844;SDS011;4961;50.782;6.080;2022-07-29T11:45:21;2.90;;;1.50;;
9844;SDS011;4961;50.782;6.080;2022-07-29T11:48:17;2.13;;;1.53;;
9844;SDS011;4961;50.782;6.080;2022-07-29T11:51:08;2.13;;;1.27;;
9844;SDS011;4961;50.782;6.080;2022-07-29T11:53:40;4.43;;;1.40;;
9844;SDS011;4961;50.782;6.080;2022-07-29T11:56:17;3.27;;;1.40;;
9844;SDS011;4961;50.782;6.080;2022-07-29T11:58:51;4.30;;;1.33;;
9844;SDS011;4961;50.782;6.080;2022-07-29T12:01:33;4.80;;;1.80;;
9844;SDS011;4961;50.782;6.080;2022-07-29T12:04:03;2.63;;;1.37;;
9844;SDS011;4961;50.782;6.080;2022-07-29T12:06:32;4.87;;;1.07;;
9844;SDS011;4961;50.782;6.080;2022-07-29T12:09:08;1.67;;;1.40;;
9844;SDS011;4961;50.782;6.080;2022-07-29T12:11:40;2.03;;;1.20;;
9844;SDS011;4961;50.782;6.080;2022-07-29T12:14:24;4.67;;;1.20;;
9844;SDS011;4961;50.782;6.080;2022-07-29T12:16:53;5.60;;;1.20;;
9844;SDS011;4961;50.782;6.080;2022-07-29T12:19:24;1.77;;;1.03;;
9844;SDS011;4961;50.782;6.080;2022-07-29T12:21:52;3.07;;;1.20;;
9844;SDS011;4961;50.782;6.080;2022-07-29T12:24:27;2.77;;;0.80;;
9844;SDS011;4961;50.782;6.080;2022-07-29T12:27:10;1.20;;;0.87;;
9844;SDS011;4961;50.782;6.080;2022-07-29T12:29:55;1.20;;;1.10;;
9844;SDS011;4961;50.782;6.080;2022-07-29T12:32:24;3.70;;;1.23;;
9844;SDS011;4961;50.782;6.080;2022-07-29T12:35:01;2.67;;;0.90;;
9844;SDS011;4961;50.782;6.080;2022-07-29T12:37:32;3.00;;;0.90;;
9844;SDS011;4961;50.782;6.080;2022-07-29T12:40:09;1.10;;;1.00;;
9844;SDS011;4961;50.782;6.080;2022-07-29T12:42:39;2.73;;;0.90;;
9844;SDS011;4961;50.782;6.080;2022-07-29T12:45:08;2.07;;;1.20;;
9844;SDS011;4961;50.782;6.080;2022-07-29T12:47:50;2.40;;;0.80;;
9844;SDS011;4961;50.782;6.080;2022-07-29T12:50:19;1.87;;;0.87;;
9844;SDS011;4961;50.782;6.080;2022-07-29T12:52:51;1.00;;;0.90;;
9844;SDS011;4961;50.782;6.080;2022-07-29T12:55:43;1.67;;;1.00;;
9844;SDS011;4961;50.782;6.080;2022-07-29T12:58:25;2.23;;;1.10;;
9844;SDS011;4961;50.782;6.080;2022-07-29T13:01:08;2.97;;;1.03;;
9844;SDS011;4961;50.782;6.080;2022-07-29T13:03:46;3.83;;;1.10;;
9844;SDS011;4961;50.782;6.080;2022-07-29T13:06:31;1.50;;;1.30;;
9844;SDS011;4961;50.782;6.080;2022-07-29T13:09:06;2.20;;;0.83;;
9844;SDS011;4961;50.782;6.080;2022-07-29T13:11:39;5.50;;;1.60;;
9844;SDS011;4961;50.782;6.080;2022-07-29T13:14:14;7.17;;;1.63;;
9844;SDS011;4961;50.782;6.080;2022-07-29T13:17:02;2.33;;;1.70;;
9844;SDS011;4961;50.782;6.080;2022-07-29T13:19:33;1.63;;;1.10;;
9844;SDS011;4961;50.782;6.080;2022-07-29T13:22:03;3.63;;;2.20;;
9844;SDS011;4961;50.782;6.080;2022-07-29T13:24:32;2.23;;;1.40;;
9844;SDS011;4961;50.782;6.080;2022-07-29T13:27:02;1.00;;;0.90;;
9844;SDS011;4961;50.782;6.080;2022-07-29T13:29:31;7.53;;;1.23;;
9844;SDS011;4961;50.782;6.080;2022-07-29T13:31:59;2.40;;;1.03;;
9844;SDS011;4961;50.782;6.080;2022-07-29T13:34:28;3.17;;;0.97;;
9844;SDS011;4961;50.782;6.080;2022-07-29T13:36:57;1.83;;;1.07;;
9844;SDS011;4961;50.782;6.080;2022-07-29T13:39:25;3.13;;;0.80;;
9844;SDS011;4961;50.782;6.080;2022-07-29T13:41:54;1.67;;;0.90;;
9844;SDS011;4961;50.782;6.080;2022-07-29T13:44:26;1.87;;;0.90;;
9844;SDS011;4961;50.782;6.080;2022-07-29T13:46:54;1.30;;;0.90;;
9844;SDS011;4961;50.782;6.080;2022-07-29T13:49:25;1.43;;;0.80;;
9844;SDS011;4961;50.782;6.080;2022-07-29T13:51:53;2.10;;;0.73;;
9844;SDS011;4961;50.782;6.080;2022-07-29T13:54:22;0.90;;;0.80;;
9844;SDS011;4961;50.782;6.080;2022-07-29T13:56:53;2.73;;;1.40;;
9844;SDS011;4961;50.782;6.080;2022-07-29T13:59:21;3.53;;;1.27;;
9844;SDS011;4961;50.782;6.080;2022-07-29T14:01:51;2.27;;;0.60;;
9844;SDS011;4961;50.782;6.080;2022-07-29T14:04:19;1.13;;;0.70;;
9844;SDS011;4961;50.782;6.080;2022-07-29T14:06:49;2.07;;;0.67;;
9844;SDS011;4961;50.782;6.080;2022-07-29T14:09:18;1.87;;;0.70;;
9844;SDS011;4961;50.782;6.080;2022-07-29T14:11:47;1.37;;;0.70;;
9844;SDS011;4961;50.782;6.080;2022-07-29T14:14:16;1.37;;;0.70;;
9844;SDS011;4961;50.782;6.080;2022-07-29T14:16:45;0.73;;;0.73;;
9844;SDS011;4961;50.782;6.080;2022-07-29T14:19:19;1.73;;;1.03;;
9844;SDS011;4961;50.782;6.080;2022-07-29T14:21:47;1.23;;;0.73;;
9844;SDS011;4961;50.782;6.080;2022-07-29T14:24:15;3.30;;;1.00;;
9844;SDS011;4961;50.782;6.080;2022-07-29T14:26:49;3.43;;;0.80;;
9844;SDS011;4961;50.782;6.080;2022-07-29T14:29:17;0.90;;;0.80;;
9844;SDS011;4961;50.782;6.080;2022-07-29T14:31:46;1.13;;;0.70;;
9844;SDS011;4961;50.782;6.080;2022-07-29T14:34:14;2.60;;;0.80;;
9844;SDS011;4961;50.782;6.080;2022-07-29T14:36:44;3.23;;;0.73;;
9844;SDS011;4961;50.782;6.080;2022-07-29T14:39:13;1.10;;;0.83;;
9844;SDS011;4961;50.782;6.080;2022-07-29T14:41:42;3.37;;;0.80;;
9844;SDS011;4961;50.782;6.080;2022-07-29T14:44:10;2.57;;;1.00;;
9844;SDS011;4961;50.782;6.080;2022-07-29T14:46:40;1.50;;;0.80;;
9844;SDS011;4961;50.782;6.080;2022-07-29T14:49:15;1.60;;;0.77;;
9844;SDS011;4961;50.782;6.080;2022-07-29T14:51:44;0.80;;;0.80;;
9844;SDS011;4961;50.782;6.080;2022-07-29T14:54:13;4.20;;;0.90;;
9844;SDS011;4961;50.782;6.080;2022-07-29T14:56:42;0.60;;;0.60;;
9844;SDS011;4961;50.782;6.080;2022-07-29T14:59:12;3.17;;;0.90;;
9844;SDS011;4961;50.782;6.080;2022-07-29T15:01:41;2.93;;;0.90;;
9844;SDS011;4961;50.782;6.080;2022-07-29T15:04:09;2.00;;;0.73;;
9844;SDS011;4961;50.782;6.080;2022-07-29T15:06:37;4.33;;;0.80;;
9844;SDS011;4961;50.782;6.080;2022-07-29T15:09:07;1.77;;;1.00;;
9844;SDS011;4961;50.782;6.080;2022-07-29T15:11:36;1.90;;;0.87;;
9844;SDS011;4961;50.782;6.080;2022-07-29T15:14:04;1.43;;;0.73;;
9844;SDS011;4961;50.782;6.080;2022-07-29T15:16:34;1.27;;;0.80;;
9844;SDS011;4961;50.782;6.080;2022-07-29T15:19:03;0.90;;;0.90;;
9844;SDS011;4961;50.782;6.080;2022-07-29T15:21:32;2.60;;;0.80;;
9844;SDS011;4961;50.782;6.080;2022-07-29T15:24:08;1.87;;;0.93;;
9844;SDS011;4961;50.782;6.080;2022-07-29T15:26:37;2.77;;;1.10;;
9844;SDS011;4961;50.782;6.080;2022-07-29T15:29:05;2.40;;;1.30;;
9844;SDS011;4961;50.782;6.080;2022-07-29T15:31:33;2.13;;;1.00;;
9844;SDS011;4961;50.782;6.080;2022-07-29T15:34:02;1.13;;;0.90;;
9844;SDS011;4961;50.782;6.080;2022-07-29T15:36:31;0.80;;;0.80;;
9844;SDS011;4961;50.782;6.080;2022-07-29T15:39:19;1.70;;;0.90;;
9844;SDS011;4961;50.782;6.080;2022-07-29T15:41:48;0.83;;;0.83;;
9844;SDS011;4961;50.782;6.080;2022-07-29T15:44:17;2.00;;;1.00;;
9844;SDS011;4961;50.782;6.080;2022-07-29T15:46:47;2.87;;;1.00;;
9844;SDS011;4961;50.782;6.080;2022-07-29T15:49:31;1.07;;;0.70;;
9844;SDS011;4961;50.782;6.080;2022-07-29T15:52:15;0.80;;;0.80;;
9844;SDS011;4961;50.782;6.080;2022-07-29T15:54:52;2.17;;;1.10;;
9844;SDS011;4961;50.782;6.080;2022-07-29T15:57:22;1.10;;;0.90;;